createdAt,value
2023-01-31T00:03:53.819Z,101283.25
2023-01-31T00:08:55.143Z,101283.81
2023-01-31T00:13:56.338Z,101286.19
2023-01-31T00:18:57.571Z,101287.19
2023-01-31T00:23:58.897Z,101294.22
2023-01-31T00:29:00.108Z,101287.19
2023-01-31T00:34:01.404Z,101289.22
2023-01-31T00:39:02.627Z,101290.25
2023-01-31T00:44:03.853Z,101288.09
2023-01-31T00:49:05.053Z,101284.56
2023-01-31T00:54:06.437Z,101282.88
2023-01-31T00:59:08.624Z,101276.31
2023-01-31T01:04:09.853Z,101276.75
2023-01-31T01:09:11.089Z,101291.03
2023-01-31T01:14:12.282Z,101296.44
2023-01-31T01:19:13.481Z,101294.28
2023-01-31T01:24:14.714Z,101291.69
2023-01-31T01:29:16.007Z,101296.09
2023-01-31T01:34:17.228Z,101294.28
2023-01-31T01:39:18.408Z,101283.88
2023-01-31T01:44:19.735Z,101287.25
2023-01-31T01:49:20.957Z,101283.09
2023-01-31T01:54:22.187Z,101281.72
2023-01-31T01:59:23.396Z,101286.81
2023-01-31T02:04:24.556Z,101279.69
2023-01-31T02:09:25.804Z,101282.03
2023-01-31T02:14:27.043Z,101283.63
2023-01-31T02:19:28.759Z,101273.78
2023-01-31T02:24:30.170Z,101285.56
2023-01-31T02:29:31.390Z,101283.75
2023-01-31T02:34:32.603Z,101286.81
2023-01-31T02:39:33.852Z,101289.28
2023-01-31T02:44:53.552Z,101284.38
2023-01-31T02:49:54.811Z,101280.88
2023-01-31T02:55:14.568Z,101284.13
2023-01-31T03:00:15.897Z,101295.13
2023-01-31T03:05:17.262Z,101288.13
2023-01-31T03:10:18.685Z,101288.13
2023-01-31T03:15:20.295Z,101279.28
2023-01-31T03:20:21.634Z,101272.97
2023-01-31T03:25:24.051Z,101267.75
2023-01-31T03:30:25.544Z,101265.59
2023-01-31T03:35:26.817Z,101257.34
2023-01-31T03:40:28.012Z,101258.66
2023-01-31T03:45:29.260Z,101271.28
2023-01-31T03:50:30.537Z,101262.56
2023-01-31T03:55:32.348Z,101265.16
2023-01-31T04:00:33.620Z,101263.97
2023-01-31T04:05:34.806Z,101270.66
2023-01-31T04:10:36.036Z,101270.56
2023-01-31T04:15:37.232Z,101260.50
2023-01-31T04:20:38.470Z,101258.53
2023-01-31T04:25:39.658Z,101248.38
2023-01-31T04:30:40.917Z,101239.88
2023-01-31T04:35:42.119Z,101231.19
2023-01-31T04:40:43.345Z,101240.13
2023-01-31T04:45:44.633Z,101238.81
2023-01-31T04:50:45.926Z,101237.75
2023-01-31T04:55:47.211Z,101231.69
2023-01-31T05:00:48.528Z,101232.38
2023-01-31T05:05:49.774Z,101229.34
2023-01-31T05:10:51.022Z,101222.56
2023-01-31T05:15:52.415Z,101224.50
2023-01-31T05:20:53.721Z,101221.63
2023-01-31T05:25:54.965Z,101212.56
2023-01-31T05:30:56.258Z,101206.53
2023-01-31T05:35:57.478Z,101213.31
2023-01-31T05:40:58.672Z,101209.00
2023-01-31T05:45:59.946Z,101213.09
2023-01-31T05:51:01.301Z,101213.25
2023-01-31T05:56:02.650Z,101216.81
2023-01-31T06:01:03.897Z,101214.16
2023-01-31T06:06:05.212Z,101199.16
2023-01-31T06:11:06.376Z,101196.34
2023-01-31T06:16:07.602Z,101201.53
2023-01-31T06:21:09.105Z,101190.50
2023-01-31T06:26:10.512Z,101190.44
2023-01-31T06:31:11.809Z,101186.59
2023-01-31T06:36:13.161Z,101171.59
2023-01-31T06:41:14.414Z,101175.56
2023-01-31T06:46:15.631Z,101177.28
2023-01-31T06:51:16.891Z,101177.41
2023-01-31T06:56:18.142Z,101184.91
2023-01-31T07:01:19.437Z,101188.66
2023-01-31T07:06:21.593Z,101187.00
2023-01-31T07:11:22.776Z,101193.59
2023-01-31T07:16:25.421Z,101190.09
2023-01-31T07:21:26.762Z,101197.59
2023-01-31T07:26:28.041Z,101196.50
2023-01-31T07:31:29.557Z,101205.09
2023-01-31T07:36:31.230Z,101188.84
2023-01-31T07:41:32.436Z,101181.31
2023-01-31T07:46:33.610Z,101167.06
2023-01-31T07:51:35.997Z,101179.50
2023-01-31T07:56:37.250Z,101172.38
2023-01-31T08:01:57.098Z,101180.19
2023-01-31T08:07:01.415Z,101169.22
2023-01-31T08:12:02.683Z,101161.06
2023-01-31T08:17:03.936Z,101172.16
2023-01-31T08:22:05.191Z,101173.94
2023-01-31T08:27:06.361Z,101167.81
2023-01-31T08:32:07.604Z,101154.25
2023-01-31T08:37:09.227Z,101144.97
2023-01-31T08:42:10.456Z,101139.66
2023-01-31T08:47:11.650Z,101136.56
2023-01-31T08:52:12.904Z,101144.72
2023-01-31T08:57:14.105Z,101136.41
2023-01-31T09:02:15.304Z,101147.41
2023-01-31T09:07:16.592Z,101142.84
2023-01-31T09:12:17.834Z,101123.38
2023-01-31T09:17:19.073Z,101124.03
2023-01-31T09:22:20.628Z,101112.81
2023-01-31T09:27:21.811Z,101100.97
2023-01-31T09:32:23.001Z,101053.78
2023-01-31T09:37:24.278Z,101110.84
2023-01-31T09:42:26.573Z,101116.81
2023-01-31T09:47:29.675Z,101103.81
2023-01-31T09:52:32.282Z,101103.16
2023-01-31T09:57:33.513Z,101100.56
2023-01-31T10:02:34.679Z,101096.22
2023-01-31T10:07:36.155Z,101093.94
2023-01-31T10:12:37.494Z,101088.75
2023-01-31T10:17:39.242Z,101077.88
2023-01-31T10:22:40.450Z,101073.97
2023-01-31T10:27:41.646Z,101068.41
2023-01-31T10:32:44.276Z,101049.66
2023-01-31T10:37:45.518Z,101044.28
2023-01-31T10:42:46.861Z,101046.19
2023-01-31T10:47:48.614Z,101036.00
2023-01-31T10:52:50.635Z,101021.16
2023-01-31T10:57:52.077Z,101018.53
2023-01-31T11:02:53.285Z,101005.59
2023-01-31T11:07:54.528Z,100991.41
2023-01-31T11:12:55.753Z,100990.50
2023-01-31T11:17:56.941Z,100969.53
2023-01-31T11:22:58.172Z,100967.22
2023-01-31T11:27:59.356Z,100949.72
2023-01-31T11:33:00.602Z,100952.38
2023-01-31T11:38:01.935Z,100953.47
2023-01-31T11:43:03.121Z,100948.56
2023-01-31T11:48:04.348Z,100929.78
2023-01-31T11:53:05.551Z,100910.28
2023-01-31T11:58:06.806Z,100913.72
2023-01-31T12:03:09.241Z,100912.44
2023-01-31T12:08:10.608Z,100899.41
2023-01-31T12:13:18.537Z,100898.09
2023-01-31T12:18:20.290Z,100892.63
2023-01-31T12:23:21.586Z,100884.31
2023-01-31T12:28:22.809Z,100891.63
2023-01-31T12:33:24.020Z,100883.31
2023-01-31T12:38:25.244Z,100882.06
2023-01-31T12:43:26.534Z,100877.75
2023-01-31T12:48:27.787Z,100869.16
2023-01-31T12:53:29.051Z,100876.66
2023-01-31T12:58:30.303Z,100875.03
2023-01-31T13:03:32.180Z,100875.00
2023-01-31T13:08:33.358Z,100870.31
2023-01-31T13:13:34.586Z,100871.56
2023-01-31T13:18:35.913Z,100867.38
2023-01-31T13:23:37.111Z,100861.13
2023-01-31T13:28:38.314Z,100870.78
2023-01-31T13:33:39.469Z,100866.34
2023-01-31T13:38:40.676Z,100861.13
2023-01-31T13:43:42.034Z,100864.28
2023-01-31T13:48:43.245Z,100865.09
2023-01-31T13:53:44.482Z,100873.88
2023-01-31T13:58:45.958Z,100867.25
2023-01-31T14:03:47.165Z,100864.03
2023-01-31T14:08:49.814Z,100854.84
2023-01-31T14:13:51.031Z,100864.19
2023-01-31T14:18:52.257Z,100864.91
2023-01-31T14:23:53.417Z,100861.78
2023-01-31T14:28:54.663Z,100862.81
2023-01-31T14:33:57.501Z,100846.38
2023-01-31T14:38:58.789Z,100842.75
2023-01-31T14:44:00.106Z,100853.94
2023-01-31T14:49:02.768Z,100865.72
2023-01-31T14:54:05.944Z,100847.47
2023-01-31T14:59:07.214Z,100848.25
2023-01-31T15:04:08.398Z,100860.25
2023-01-31T15:09:09.660Z,100847.22
2023-01-31T15:14:13.293Z,100851.63
2023-01-31T15:19:20.470Z,100861.81
2023-01-31T15:24:21.810Z,100869.41
2023-01-31T15:29:23.042Z,100873.84
2023-01-31T15:34:24.238Z,100878.28
2023-01-31T15:39:27.043Z,100882.44
2023-01-31T15:44:29.225Z,100883.50
2023-01-31T15:49:39.688Z,100885.06
2023-01-31T15:54:41.406Z,100886.63
2023-01-31T15:59:42.632Z,100874.38
2023-01-31T16:04:43.789Z,100889.53
2023-01-31T16:09:45.075Z,100884.09
2023-01-31T16:14:46.352Z,100895.84
2023-01-31T16:19:47.526Z,100905.25
2023-01-31T16:24:48.699Z,100908.16
2023-01-31T16:29:50.007Z,100909.16
2023-01-31T16:34:51.170Z,100922.78
2023-01-31T16:39:52.542Z,100924.34
2023-01-31T16:44:53.734Z,100930.09
2023-01-31T16:49:54.899Z,100941.88
2023-01-31T16:54:56.083Z,100939.03
2023-01-31T16:59:57.397Z,100942.16
2023-01-31T17:04:58.655Z,100948.72
2023-01-31T17:09:59.911Z,100958.13
2023-01-31T17:15:03.483Z,100958.66
2023-01-31T17:20:05.305Z,100962.06
2023-01-31T17:25:06.530Z,100960.25
2023-01-31T17:30:07.728Z,100941.19
2023-01-31T17:35:08.881Z,100962.06
2023-01-31T17:40:10.041Z,100963.63
2023-01-31T17:45:11.237Z,100951.16
2023-01-31T17:50:12.418Z,100953.00
2023-01-31T17:55:13.732Z,100953.81
2023-01-31T18:00:15.273Z,100921.69
2023-01-31T18:05:18.681Z,100914.63
2023-01-31T18:10:21.643Z,100928.09
2023-01-31T18:15:23.242Z,100923.06
2023-01-31T18:20:24.534Z,100915.97
2023-01-31T18:25:25.732Z,100912.94
2023-01-31T18:30:26.934Z,100910.81
2023-01-31T18:35:28.169Z,100909.97
2023-01-31T18:40:29.334Z,100904.91
2023-01-31T18:45:30.572Z,100910.59
2023-01-31T18:50:31.744Z,100916.41
2023-01-31T18:55:32.930Z,100905.00
2023-01-31T19:00:34.240Z,100910.81
2023-01-31T19:05:35.477Z,100908.72
2023-01-31T19:10:36.662Z,100921.28
2023-01-31T19:15:37.817Z,100922.94
2023-01-31T19:20:38.969Z,100939.13
2023-01-31T19:25:40.193Z,100929.47
2023-01-31T19:30:41.457Z,100931.59
2023-01-31T19:35:42.713Z,100931.59
2023-01-31T19:40:43.938Z,100921.88
2023-01-31T19:45:45.578Z,100918.44
2023-01-31T19:50:46.810Z,100920.31
2023-01-31T19:55:48.054Z,100931.53
2023-01-31T20:00:49.359Z,100931.06
2023-01-31T20:05:50.582Z,100945.16
2023-01-31T20:10:51.785Z,100964.44
2023-01-31T20:15:52.970Z,100985.31
2023-01-31T20:20:54.126Z,101009.56
2023-01-31T20:25:55.369Z,100999.66
2023-01-31T20:30:56.638Z,100979.69
2023-01-31T20:35:57.843Z,100979.91
2023-01-31T20:40:59.139Z,100958.88
2023-01-31T20:46:00.344Z,100970.56
2023-01-31T20:51:01.609Z,100960.38
2023-01-31T20:56:02.789Z,100969.75
2023-01-31T21:01:06.159Z,100967.13
2023-01-31T21:06:07.634Z,100964.13
2023-01-31T21:11:08.811Z,100952.00
2023-01-31T21:16:10.098Z,100949.03
2023-01-31T21:21:11.293Z,100942.81
2023-01-31T21:26:12.552Z,100935.50
2023-01-31T21:31:16.734Z,100927.22
2023-01-31T21:36:18.177Z,100914.53
2023-01-31T21:41:37.941Z,100919.44
2023-01-31T21:46:39.264Z,100920.38
2023-01-31T21:51:40.498Z,100921.66
2023-01-31T21:56:41.718Z,100913.03
2023-01-31T22:01:42.967Z,100916.34
2023-01-31T22:06:44.154Z,100911.75
2023-01-31T22:11:46.735Z,100908.25
2023-01-31T22:16:50.009Z,100901.66
2023-01-31T22:21:51.266Z,100891.63
2023-01-31T22:26:52.517Z,100889.84
2023-01-31T22:31:56.007Z,100890.38
2023-01-31T22:36:57.320Z,100882.31
2023-01-31T22:41:58.500Z,100876.34
2023-01-31T22:46:59.722Z,100876.09
2023-01-31T22:52:01.010Z,100879.78
2023-01-31T22:57:02.239Z,100866.50
2023-01-31T23:02:03.414Z,100863.91
2023-01-31T23:07:04.661Z,100867.28
2023-01-31T23:12:05.825Z,100876.94
2023-01-31T23:17:25.584Z,100870.13
2023-01-31T23:22:26.800Z,100859.94
2023-01-31T23:27:28.029Z,100850.50
2023-01-31T23:32:29.244Z,100856.19
2023-01-31T23:37:30.465Z,100849.34
2023-01-31T23:42:31.656Z,100855.91
2023-01-31T23:47:32.852Z,100850.75
2023-01-31T23:52:34.038Z,100857.50
2023-01-31T23:57:35.300Z,100852.81
